Aransas Pass — WDF5061 — position and weather

sailwx.info

Track history (hours):
 
Tides and Currents Weather Stations Pressure Air Temp Water Temp Dewpoint Dewpoint Depression Visibility Wind Speed Wind Dir Waves Ship Positions

Aransas Pass

Owner: Higman Barge Lines, Inc., Orange, TX. More information available from US FCC via Universal Licensing System and Coast Guard Vessel Documentation Center.

Last reported at 2014-Oct-31 12:30 UTC. Time now 2014-Nov-01 12:30 UTC.
Position N 29°44' W 095°08'.

Length 26 m; draft 3 m.

Type: Towing. MMSI: 367458930.

Date/timePositionNaut miles runAvg speedWind from/ knotsBaromVisibWave heightAir tempDewpointWater temp
2014-Oct-31 12:30N 29°44' W 095°08'0 0.0
2014-Oct-30 01:09N 29°44' W 095°08'0 0.0
2014-Oct-29 14:29N 29°44' W 095°08'0 0.0
2014-Oct-29 09:04N 29°44' W 095°08'0 0.0
2014-Oct-29 08:33N 29°44' W 095°08'0 0.0
2014-Oct-29 07:32N 29°44' W 095°08'0 0.3
2014-Oct-29 06:33N 29°44' W 095°08'0 0.0
2014-Oct-28 14:34N 29°44' W 095°08'0 0.0
2014-Oct-28 13:34N 29°44' W 095°08'0 0.0
2014-Oct-27 20:25N 29°44' W 095°08'2 0.8
2014-Oct-27 18:33N 29°45' W 095°07'0 0.0
2014-Oct-27 17:28N 29°45' W 095°07'1 0.8
2014-Oct-27 15:31N 29°44' W 095°08'4 3.1
2014-Oct-27 14:11N 29°47' W 095°05'0 0.0
2014-Oct-27 13:31N 29°47' W 095°05'0 0.0
2014-Oct-27 12:33N 29°47' W 095°05'0 0.0
2014-Oct-27 11:24N 29°47' W 095°05'0 0.0
2014-Oct-27 09:32N 29°47' W 095°05'0 0.0
2014-Oct-27 08:11N 29°47' W 095°05'0 0.0
2014-Oct-27 07:10N 29°47' W 095°05'0 0.3
2014-Oct-27 06:30N 29°47' W 095°05'4 4.0
2014-Oct-27 05:34N 29°44' W 095°08'0 0.0
2014-Oct-27 04:19N 29°44' W 095°08'0 0.0
2014-Oct-26 16:09N 29°44' W 095°08'0 0.0
2014-Oct-26 15:27N 29°44' W 095°08'0 0.0
2014-Oct-26 14:33N 29°44' W 095°08'0 0.0
2014-Oct-26 13:28N 29°44' W 095°08'0 0.0
2014-Oct-26 12:31N 29°44' W 095°08'0 0.0
2014-Oct-26 06:34N 29°44' W 095°08'0 0.1
2014-Oct-26 05:20N 29°44' W 095°08'0 0.3
2014-Oct-26 04:14N 29°44' W 095°08'  
2014-Oct-21 15:30N 29°44' W 095°08'  
Track history (hours):
 
Tides and Currents Weather Stations Pressure Air Temp Water Temp Dewpoint Dewpoint Depression Visibility Wind Speed Wind Dir Waves Ship Positions

Aransas Pass

Owner: Higman Barge Lines, Inc., Orange, TX. More information available from US FCC via Universal Licensing System and Coast Guard Vessel Documentation Center.

Last reported at 2014-Oct-31 12:30 UTC. Time now 2014-Nov-01 12:30 UTC.
Position N 29°44' W 095°08'.

Length 26 m; draft 3 m.

Type: Towing. MMSI: 367458930.

Date/timePositionNaut miles runAvg speedWind from/ knotsBaromVisibWave heightAir tempDewpointWater temp
2014-Oct-31 12:30N 29°44' W 095°08'0 0.0
2014-Oct-30 01:09N 29°44' W 095°08'0 0.0
2014-Oct-29 14:29N 29°44' W 095°08'0 0.0
2014-Oct-29 09:04N 29°44' W 095°08'0 0.0
2014-Oct-29 08:33N 29°44' W 095°08'0 0.0
2014-Oct-29 07:32N 29°44' W 095°08'0 0.3
2014-Oct-29 06:33N 29°44' W 095°08'0 0.0
2014-Oct-28 14:34N 29°44' W 095°08'0 0.0
2014-Oct-28 13:34N 29°44' W 095°08'0 0.0
2014-Oct-27 20:25N 29°44' W 095°08'2 0.8
2014-Oct-27 18:33N 29°45' W 095°07'0 0.0
2014-Oct-27 17:28N 29°45' W 095°07'1 0.8
2014-Oct-27 15:31N 29°44' W 095°08'4 3.1
2014-Oct-27 14:11N 29°47' W 095°05'0 0.0
2014-Oct-27 13:31N 29°47' W 095°05'0 0.0
2014-Oct-27 12:33N 29°47' W 095°05'0 0.0
2014-Oct-27 11:24N 29°47' W 095°05'0 0.0
2014-Oct-27 09:32N 29°47' W 095°05'0 0.0
2014-Oct-27 08:11N 29°47' W 095°05'0 0.0
2014-Oct-27 07:10N 29°47' W 095°05'0 0.3
2014-Oct-27 06:30N 29°47' W 095°05'4 4.0
2014-Oct-27 05:34N 29°44' W 095°08'0 0.0
2014-Oct-27 04:19N 29°44' W 095°08'0 0.0
2014-Oct-26 16:09N 29°44' W 095°08'0 0.0
2014-Oct-26 15:27N 29°44' W 095°08'0 0.0
2014-Oct-26 14:33N 29°44' W 095°08'0 0.0
2014-Oct-26 13:28N 29°44' W 095°08'0 0.0
2014-Oct-26 12:31N 29°44' W 095°08'0 0.0
2014-Oct-26 06:34N 29°44' W 095°08'0 0.1
2014-Oct-26 05:20N 29°44' W 095°08'0 0.3
2014-Oct-26 04:14N 29°44' W 095°08'  
2014-Oct-21 15:30N 29°44' W 095°08'  

Dump ship's entire track history